createdAt,value
2023-03-06T00:01:13.598Z,96063.66
2023-03-06T00:06:05.578Z,96067.25
2023-03-06T00:10:57.973Z,96061.84
2023-03-06T00:15:49.786Z,96065.66
2023-03-06T00:20:44.027Z,96056.47
2023-03-06T00:25:38.751Z,96044.75
2023-03-06T00:30:31.382Z,96036.75
2023-03-06T00:35:23.154Z,96032.97
2023-03-06T00:40:19.224Z,96036.34
2023-03-06T00:45:11.703Z,96018.19
2023-03-06T00:50:04.793Z,96017.19
2023-03-06T00:54:56.515Z,96021.00
2023-03-06T00:59:48.253Z,96004.25
2023-03-06T01:04:40.154Z,95994.06
2023-03-06T01:09:31.909Z,95978.16
2023-03-06T01:14:24.540Z,95974.53
2023-03-06T01:19:16.440Z,95966.38
2023-03-06T01:24:08.862Z,95953.41
2023-03-06T01:29:01.403Z,95944.25
2023-03-06T01:33:53.219Z,95937.47
2023-03-06T01:38:45.227Z,95929.09
2023-03-06T01:43:43.997Z,95928.69
2023-03-06T01:48:35.788Z,95912.56
2023-03-06T01:53:27.749Z,95914.34
2023-03-06T01:58:19.999Z,95913.75
2023-03-06T02:03:21.449Z,95908.19
2023-03-06T02:08:18.212Z,95894.03
2023-03-06T02:13:10.051Z,95901.41
2023-03-06T02:18:02.219Z,95888.06
2023-03-06T02:23:20.679Z,95886.25
2023-03-06T02:28:19.735Z,95886.25
2023-03-06T02:33:15.830Z,95872.31
2023-03-06T02:38:16.050Z,95875.50
2023-03-06T02:43:08.500Z,95870.72
2023-03-06T02:48:00.260Z,95856.19
2023-03-06T02:52:52.102Z,95852.78
2023-03-06T02:57:43.842Z,95850.19
2023-03-06T03:02:35.983Z,95848.81
2023-03-06T03:07:27.664Z,95848.03
2023-03-06T03:12:19.720Z,95842.63
2023-03-06T03:17:11.401Z,95837.06
2023-03-06T03:22:03.074Z,95837.06
2023-03-06T03:26:54.913Z,95839.84
2023-03-06T03:31:46.577Z,95840.66
2023-03-06T03:36:38.558Z,95839.66
2023-03-06T03:41:30.485Z,95834.69
2023-03-06T03:46:22.179Z,95831.50
2023-03-06T03:51:16.425Z,95836.47
2023-03-06T03:56:08.214Z,95825.50
2023-03-06T04:01:00.684Z,95820.75
2023-03-06T04:05:54.363Z,95823.13
2023-03-06T04:10:46.101Z,95813.75
2023-03-06T04:15:37.847Z,95814.78
2023-03-06T04:20:29.971Z,95803.22
2023-03-06T04:25:21.665Z,95807.19
2023-03-06T04:30:13.818Z,95807.81
2023-03-06T04:35:06.094Z,95801.03
2023-03-06T04:39:57.818Z,95796.66
2023-03-06T04:44:49.576Z,95793.47
2023-03-06T04:49:41.263Z,95788.47
2023-03-06T04:54:33.066Z,95790.47
2023-03-06T04:59:24.901Z,95783.91
2023-03-06T05:09:30.871Z,95786.50
2023-03-06T05:14:24.493Z,95796.84
2023-03-06T05:19:20.205Z,95794.06
2023-03-06T06:15:33.182Z,95812.38
2023-03-06T06:46:34.053Z,95821.88
2023-03-06T06:51:28.034Z,95813.69
2023-03-06T07:37:59.418Z,95831.16
2023-03-06T08:13:36.334Z,95858.53
2023-03-06T08:38:59.140Z,95874.25
2023-03-06T09:04:21.071Z,95877.91
2023-03-06T12:55:53.054Z,95781.47
2023-03-06T13:07:22.502Z,95779.47
2023-03-06T13:22:47.508Z,95759.75
2023-03-06T13:38:03.223Z,95765.25
2023-03-06T14:31:39.406Z,95758.25
2023-03-06T14:36:37.205Z,95754.88
2023-03-06T15:02:40.900Z,95734.00
2023-03-06T15:23:01.646Z,95735.72
2023-03-06T15:43:58.581Z,95742.94
2023-03-06T16:14:59.653Z,95720.59
2023-03-06T16:19:53.668Z,95726.47
2023-03-06T16:24:48.055Z,95719.63
2023-03-06T16:29:44.453Z,95722.38
2023-03-06T17:20:47.138Z,95746.06
2023-03-06T17:30:52.897Z,95756.75
2023-03-06T17:35:45.597Z,95754.38
2023-03-06T17:56:15.180Z,95779.56
2023-03-06T18:01:25.247Z,95789.63
2023-03-06T18:06:20.259Z,95778.00
2023-03-06T18:16:24.437Z,95789.66
2023-03-06T18:21:19.833Z,95790.91
2023-03-06T18:37:01.136Z,95800.84
2023-03-06T18:41:57.679Z,95806.88
2023-03-06T18:46:57.360Z,95809.25
2023-03-06T18:51:57.964Z,95815.66
2023-03-06T18:56:49.900Z,95811.69
2023-03-06T19:07:00.317Z,95816.44
2023-03-06T19:11:54.757Z,95822.00
2023-03-06T19:16:49.345Z,95829.44
2023-03-06T19:26:47.231Z,95831.91
2023-03-06T19:31:52.815Z,95830.28
2023-03-06T19:36:54.563Z,95819.75
2023-03-06T19:41:52.618Z,95822.22
2023-03-06T19:46:44.859Z,95822.34
2023-03-06T19:56:43.426Z,95812.59
2023-03-06T20:01:38.540Z,95825.81
2023-03-06T20:06:33.869Z,95812.44
2023-03-06T20:11:32.314Z,95821.69
2023-03-06T20:16:34.146Z,95819.72
2023-03-06T20:26:35.760Z,95829.53
2023-03-06T20:46:56.037Z,95832.66
2023-03-06T20:51:48.539Z,95833.88
2023-03-06T20:56:45.335Z,95826.25
2023-03-06T21:01:43.148Z,95825.72
2023-03-06T21:11:42.259Z,95818.19
2023-03-06T21:16:40.244Z,95813.81
2023-03-06T21:21:40.095Z,95802.38
2023-03-06T21:26:44.211Z,95799.63
2023-03-06T21:31:38.275Z,95810.47
2023-03-06T21:36:31.756Z,95807.72
2023-03-06T21:51:45.078Z,95785.22
2023-03-06T21:56:37.945Z,95787.38
2023-03-06T22:01:31.420Z,95781.19
2023-03-06T22:06:34.147Z,95774.22
2023-03-06T22:16:40.319Z,95773.81
2023-03-06T22:26:42.063Z,95777.81
2023-03-06T22:31:41.619Z,95776.50
2023-03-06T22:36:35.550Z,95770.72
2023-03-06T22:41:32.481Z,95784.75
2023-03-06T22:56:50.733Z,95772.31
2023-03-06T23:01:43.355Z,95770.19
2023-03-06T23:06:40.271Z,95755.16
2023-03-06T23:11:33.343Z,95761.63
2023-03-06T23:16:25.669Z,95765.78
2023-03-06T23:21:19.320Z,95766.38
2023-03-06T23:26:14.376Z,95774.41
2023-03-06T23:31:14.486Z,95763.69
2023-03-06T23:36:10.188Z,95767.66
2023-03-06T23:41:07.986Z,95770.06
2023-03-06T23:46:00.734Z,95770.50
2023-03-06T23:50:52.591Z,95765.91
